sensor_id;sensor_type;location;lat;lon;timestamp;P1;durP1;ratioP1;P2;durP2;ratioP2
5961;SDS011;3007;50.770;0.250;2022-07-04T00:00:01;5.13;;;1.30;;
5961;SDS011;3007;50.770;0.250;2022-07-04T00:02:28;1.73;;;1.30;;
5961;SDS011;3007;50.770;0.250;2022-07-04T00:04:56;1.00;;;0.90;;
5961;SDS011;3007;50.770;0.250;2022-07-04T00:07:23;1.77;;;1.10;;
5961;SDS011;3007;50.770;0.250;2022-07-04T00:09:50;1.53;;;1.10;;
5961;SDS011;3007;50.770;0.250;2022-07-04T00:12:17;2.07;;;1.00;;
5961;SDS011;3007;50.770;0.250;2022-07-04T00:14:46;1.30;;;1.20;;
5961;SDS011;3007;50.770;0.250;2022-07-04T00:17:13;3.40;;;1.57;;
5961;SDS011;3007;50.770;0.250;2022-07-04T00:19:40;2.40;;;1.20;;
5961;SDS011;3007;50.770;0.250;2022-07-04T00:22:08;1.40;;;1.07;;
5961;SDS011;3007;50.770;0.250;2022-07-04T00:24:35;1.33;;;1.23;;
5961;SDS011;3007;50.770;0.250;2022-07-04T00:27:02;2.63;;;1.03;;
5961;SDS011;3007;50.770;0.250;2022-07-04T00:29:29;2.70;;;0.97;;
5961;SDS011;3007;50.770;0.250;2022-07-04T00:31:59;2.40;;;1.23;;
5961;SDS011;3007;50.770;0.250;2022-07-04T00:34:27;1.73;;;1.03;;
5961;SDS011;3007;50.770;0.250;2022-07-04T00:36:54;1.43;;;1.20;;
5961;SDS011;3007;50.770;0.250;2022-07-04T00:39:21;5.67;;;1.30;;
5961;SDS011;3007;50.770;0.250;2022-07-04T00:41:48;3.90;;;1.20;;
5961;SDS011;3007;50.770;0.250;2022-07-04T00:44:16;3.67;;;1.10;;
5961;SDS011;3007;50.770;0.250;2022-07-04T00:46:44;1.63;;;1.00;;
5961;SDS011;3007;50.770;0.250;2022-07-04T00:49:14;3.40;;;1.07;;
5961;SDS011;3007;50.770;0.250;2022-07-04T00:51:42;2.33;;;1.30;;
5961;SDS011;3007;50.770;0.250;2022-07-04T00:54:09;1.30;;;1.20;;
5961;SDS011;3007;50.770;0.250;2022-07-04T00:56:37;2.20;;;1.20;;
5961;SDS011;3007;50.770;0.250;2022-07-04T00:59:05;1.80;;;1.10;;
5961;SDS011;3007;50.770;0.250;2022-07-04T01:01:33;0.83;;;0.77;;
5961;SDS011;3007;50.770;0.250;2022-07-04T01:04:01;2.03;;;1.30;;
5961;SDS011;3007;50.770;0.250;2022-07-04T01:06:30;2.10;;;1.10;;
5961;SDS011;3007;50.770;0.250;2022-07-04T01:08:57;1.90;;;1.13;;
5961;SDS011;3007;50.770;0.250;2022-07-04T01:11:24;0.90;;;0.90;;
5961;SDS011;3007;50.770;0.250;2022-07-04T01:13:53;1.27;;;1.17;;
5961;SDS011;3007;50.770;0.250;2022-07-04T01:16:20;2.43;;;0.90;;
5961;SDS011;3007;50.770;0.250;2022-07-04T01:18:47;1.13;;;0.90;;
5961;SDS011;3007;50.770;0.250;2022-07-04T01:21:16;1.77;;;1.20;;
5961;SDS011;3007;50.770;0.250;2022-07-04T01:23:43;1.67;;;1.27;;
5961;SDS011;3007;50.770;0.250;2022-07-04T01:26:11;1.30;;;1.20;;
5961;SDS011;3007;50.770;0.250;2022-07-04T01:28:38;2.13;;;1.07;;
5961;SDS011;3007;50.770;0.250;2022-07-04T01:31:06;1.80;;;1.07;;
5961;SDS011;3007;50.770;0.250;2022-07-04T01:33:33;1.70;;;1.20;;
5961;SDS011;3007;50.770;0.250;2022-07-04T01:36:00;4.60;;;1.50;;
5961;SDS011;3007;50.770;0.250;2022-07-04T01:38:29;1.53;;;1.07;;
5961;SDS011;3007;50.770;0.250;2022-07-04T01:40:56;2.40;;;1.10;;
5961;SDS011;3007;50.770;0.250;2022-07-04T01:43:23;1.37;;;1.10;;
5961;SDS011;3007;50.770;0.250;2022-07-04T01:45:50;1.50;;;1.20;;
5961;SDS011;3007;50.770;0.250;2022-07-04T01:48:17;1.23;;;1.13;;
5961;SDS011;3007;50.770;0.250;2022-07-04T01:50:44;1.20;;;0.93;;
5961;SDS011;3007;50.770;0.250;2022-07-04T01:53:12;1.47;;;1.03;;
5961;SDS011;3007;50.770;0.250;2022-07-04T01:55:40;1.83;;;1.33;;
5961;SDS011;3007;50.770;0.250;2022-07-04T01:58:07;2.40;;;1.57;;
5961;SDS011;3007;50.770;0.250;2022-07-04T02:00:34;1.57;;;1.10;;
5961;SDS011;3007;50.770;0.250;2022-07-04T02:03:19;1.13;;;1.03;;
5961;SDS011;3007;50.770;0.250;2022-07-04T02:05:46;2.57;;;1.30;;
5961;SDS011;3007;50.770;0.250;2022-07-04T02:08:13;1.63;;;0.97;;
5961;SDS011;3007;50.770;0.250;2022-07-04T02:10:42;2.30;;;1.20;;
5961;SDS011;3007;50.770;0.250;2022-07-04T02:13:10;2.43;;;1.30;;
5961;SDS011;3007;50.770;0.250;2022-07-04T02:15:37;2.23;;;1.10;;
5961;SDS011;3007;50.770;0.250;2022-07-04T02:18:06;1.47;;;1.17;;
5961;SDS011;3007;50.770;0.250;2022-07-04T02:20:33;1.33;;;1.00;;
5961;SDS011;3007;50.770;0.250;2022-07-04T02:23:02;1.20;;;1.10;;
5961;SDS011;3007;50.770;0.250;2022-07-04T02:25:30;1.63;;;1.00;;
5961;SDS011;3007;50.770;0.250;2022-07-04T02:27:58;1.10;;;1.00;;
5961;SDS011;3007;50.770;0.250;2022-07-04T02:30:25;3.27;;;1.60;;
5961;SDS011;3007;50.770;0.250;2022-07-04T02:32:52;2.27;;;1.10;;
5961;SDS011;3007;50.770;0.250;2022-07-04T02:35:20;0.70;;;0.70;;
5961;SDS011;3007;50.770;0.250;2022-07-04T02:37:47;1.97;;;1.20;;
5961;SDS011;3007;50.770;0.250;2022-07-04T02:40:14;1.50;;;0.90;;
5961;SDS011;3007;50.770;0.250;2022-07-04T02:42:41;1.47;;;1.17;;
5961;SDS011;3007;50.770;0.250;2022-07-04T02:45:10;0.90;;;0.80;;
5961;SDS011;3007;50.770;0.250;2022-07-04T02:47:37;2.90;;;1.20;;
5961;SDS011;3007;50.770;0.250;2022-07-04T02:50:05;1.00;;;0.80;;
5961;SDS011;3007;50.770;0.250;2022-07-04T02:52:32;1.63;;;1.00;;
5961;SDS011;3007;50.770;0.250;2022-07-04T02:54:59;1.17;;;1.07;;
5961;SDS011;3007;50.770;0.250;2022-07-04T02:57:26;1.57;;;1.00;;
5961;SDS011;3007;50.770;0.250;2022-07-04T02:59:54;2.43;;;1.30;;
5961;SDS011;3007;50.770;0.250;2022-07-04T03:02:22;1.10;;;1.00;;
5961;SDS011;3007;50.770;0.250;2022-07-04T03:04:49;1.33;;;1.13;;
5961;SDS011;3007;50.770;0.250;2022-07-04T03:07:17;1.17;;;0.90;;
5961;SDS011;3007;50.770;0.250;2022-07-04T03:09:44;1.80;;;1.07;;
5961;SDS011;3007;50.770;0.250;2022-07-04T03:12:11;1.47;;;1.00;;
5961;SDS011;3007;50.770;0.250;2022-07-04T03:14:38;1.90;;;1.00;;
5961;SDS011;3007;50.770;0.250;2022-07-04T03:17:05;2.40;;;1.10;;
5961;SDS011;3007;50.770;0.250;2022-07-04T03:19:34;1.80;;;1.17;;
5961;SDS011;3007;50.770;0.250;2022-07-04T03:22:01;1.20;;;0.80;;
5961;SDS011;3007;50.770;0.250;2022-07-04T03:24:28;1.17;;;1.00;;
5961;SDS011;3007;50.770;0.250;2022-07-04T03:26:55;4.03;;;0.90;;
5961;SDS011;3007;50.770;0.250;2022-07-04T03:29:22;1.80;;;1.00;;
5961;SDS011;3007;50.770;0.250;2022-07-04T03:31:50;0.87;;;0.87;;
5961;SDS011;3007;50.770;0.250;2022-07-04T03:34:18;1.80;;;0.93;;
5961;SDS011;3007;50.770;0.250;2022-07-04T03:36:46;2.40;;;1.03;;
5961;SDS011;3007;50.770;0.250;2022-07-04T03:39:13;1.47;;;0.80;;
5961;SDS011;3007;50.770;0.250;2022-07-04T03:41:40;2.07;;;0.93;;
5961;SDS011;3007;50.770;0.250;2022-07-04T03:44:08;1.30;;;1.00;;
5961;SDS011;3007;50.770;0.250;2022-07-04T03:46:35;1.77;;;1.20;;
5961;SDS011;3007;50.770;0.250;2022-07-04T03:49:02;0.90;;;0.90;;
5961;SDS011;3007;50.770;0.250;2022-07-04T03:51:29;1.17;;;0.80;;
5961;SDS011;3007;50.770;0.250;2022-07-04T03:53:58;1.97;;;1.00;;
5961;SDS011;3007;50.770;0.250;2022-07-04T03:56:25;1.40;;;0.77;;
5961;SDS011;3007;50.770;0.250;2022-07-04T03:58:52;2.60;;;1.00;;
5961;SDS011;3007;50.770;0.250;2022-07-04T04:01:20;2.30;;;0.90;;
5961;SDS011;3007;50.770;0.250;2022-07-04T04:03:47;0.90;;;0.80;;
5961;SDS011;3007;50.770;0.250;2022-07-04T04:06:32;1.40;;;1.10;;
5961;SDS011;3007;50.770;0.250;2022-07-04T04:09:00;1.53;;;0.90;;
5961;SDS011;3007;50.770;0.250;2022-07-04T04:11:27;1.10;;;1.00;;
5961;SDS011;3007;50.770;0.250;2022-07-04T04:13:55;1.93;;;1.40;;
5961;SDS011;3007;50.770;0.250;2022-07-04T04:16:22;2.30;;;1.00;;
5961;SDS011;3007;50.770;0.250;2022-07-04T04:18:49;3.33;;;1.43;;
5961;SDS011;3007;50.770;0.250;2022-07-04T04:21:17;2.80;;;0.90;;
5961;SDS011;3007;50.770;0.250;2022-07-04T04:23:44;2.00;;;1.10;;
5961;SDS011;3007;50.770;0.250;2022-07-04T04:26:12;1.30;;;0.90;;
5961;SDS011;3007;50.770;0.250;2022-07-04T04:28:40;2.40;;;0.90;;
5961;SDS011;3007;50.770;0.250;2022-07-04T04:31:08;1.23;;;1.00;;
5961;SDS011;3007;50.770;0.250;2022-07-04T04:33:35;4.35;;;0.80;;
5961;SDS011;3007;50.770;0.250;2022-07-04T04:36:02;0.82;;;0.80;;
5961;SDS011;3007;50.770;0.250;2022-07-04T04:38:30;0.75;;;0.73;;
5961;SDS011;3007;50.770;0.250;2022-07-04T04:40:57;3.67;;;0.98;;
5961;SDS011;3007;50.770;0.250;2022-07-04T04:43:25;1.35;;;0.85;;
5961;SDS011;3007;50.770;0.250;2022-07-04T04:45:52;1.45;;;0.90;;
5961;SDS011;3007;50.770;0.250;2022-07-04T04:48:20;0.80;;;0.77;;
5961;SDS011;3007;50.770;0.250;2022-07-04T04:50:47;0.88;;;0.70;;
5961;SDS011;3007;50.770;0.250;2022-07-04T04:53:14;1.10;;;0.82;;
5961;SDS011;3007;50.770;0.250;2022-07-04T04:55:41;1.27;;;0.80;;
5961;SDS011;3007;50.770;0.250;2022-07-04T04:58:08;0.90;;;0.80;;
5961;SDS011;3007;50.770;0.250;2022-07-04T05:00:36;2.03;;;0.80;;
5961;SDS011;3007;50.770;0.250;2022-07-04T05:03:04;2.67;;;1.00;;
5961;SDS011;3007;50.770;0.250;2022-07-04T05:05:31;2.15;;;0.82;;
5961;SDS011;3007;50.770;0.250;2022-07-04T05:07:58;1.20;;;0.90;;
5961;SDS011;3007;50.770;0.250;2022-07-04T05:10:25;0.73;;;0.60;;
5961;SDS011;3007;50.770;0.250;2022-07-04T05:12:52;1.67;;;0.75;;
5961;SDS011;3007;50.770;0.250;2022-07-04T05:15:20;1.00;;;0.70;;
5961;SDS011;3007;50.770;0.250;2022-07-04T05:17:48;2.35;;;0.70;;
5961;SDS011;3007;50.770;0.250;2022-07-04T05:20:16;0.90;;;0.63;;
5961;SDS011;3007;50.770;0.250;2022-07-04T05:22:43;0.98;;;0.70;;
5961;SDS011;3007;50.770;0.250;2022-07-04T05:25:10;1.70;;;0.90;;
5961;SDS011;3007;50.770;0.250;2022-07-04T05:27:37;2.95;;;0.80;;
5961;SDS011;3007;50.770;0.250;2022-07-04T05:30:05;1.38;;;0.80;;
5961;SDS011;3007;50.770;0.250;2022-07-04T05:32:33;4.22;;;1.00;;
5961;SDS011;3007;50.770;0.250;2022-07-04T05:35:01;2.78;;;0.73;;
5961;SDS011;3007;50.770;0.250;2022-07-04T05:37:29;1.38;;;0.80;;
5961;SDS011;3007;50.770;0.250;2022-07-04T05:39:56;1.48;;;0.80;;
5961;SDS011;3007;50.770;0.250;2022-07-04T05:42:23;2.15;;;0.73;;
5961;SDS011;3007;50.770;0.250;2022-07-04T05:44:50;1.50;;;1.00;;
5961;SDS011;3007;50.770;0.250;2022-07-04T05:47:17;0.93;;;0.55;;
5961;SDS011;3007;50.770;0.250;2022-07-04T05:49:44;1.38;;;0.88;;
5961;SDS011;3007;50.770;0.250;2022-07-04T05:52:13;0.52;;;0.40;;
5961;SDS011;3007;50.770;0.250;2022-07-04T05:54:40;0.70;;;0.68;;
5961;SDS011;3007;50.770;0.250;2022-07-04T05:57:07;1.90;;;0.70;;
5961;SDS011;3007;50.770;0.250;2022-07-04T05:59:34;0.85;;;0.75;;
5961;SDS011;3007;50.770;0.250;2022-07-04T06:02:01;1.15;;;0.70;;
5961;SDS011;3007;50.770;0.250;2022-07-04T06:04:28;1.05;;;0.68;;
5961;SDS011;3007;50.770;0.250;2022-07-04T06:06:56;1.20;;;0.73;;
5961;SDS011;3007;50.770;0.250;2022-07-04T06:09:24;0.88;;;0.70;;
5961;SDS011;3007;50.770;0.250;2022-07-04T06:11:51;0.63;;;0.50;;
5961;SDS011;3007;50.770;0.250;2022-07-04T06:14:18;0.93;;;0.70;;
5961;SDS011;3007;50.770;0.250;2022-07-04T06:16:46;1.80;;;0.75;;
5961;SDS011;3007;50.770;0.250;2022-07-04T06:19:13;1.02;;;0.70;;
5961;SDS011;3007;50.770;0.250;2022-07-04T06:21:40;1.67;;;0.80;;
5961;SDS011;3007;50.770;0.250;2022-07-04T06:24:09;1.73;;;0.85;;
5961;SDS011;3007;50.770;0.250;2022-07-04T06:26:38;1.40;;;0.80;;
5961;SDS011;3007;50.770;0.250;2022-07-04T06:29:05;1.33;;;0.80;;
5961;SDS011;3007;50.770;0.250;2022-07-04T06:34:09;0.75;;;0.60;;
5961;SDS011;3007;50.770;0.250;2022-07-04T06:36:53;0.88;;;0.70;;
5961;SDS011;3007;50.770;0.250;2022-07-04T06:39:21;1.13;;;0.73;;
5961;SDS011;3007;50.770;0.250;2022-07-04T06:41:48;0.55;;;0.55;;
5961;SDS011;3007;50.770;0.250;2022-07-04T06:44:15;0.73;;;0.73;;
5961;SDS011;3007;50.770;0.250;2022-07-04T06:46:42;0.93;;;0.80;;
5961;SDS011;3007;50.770;0.250;2022-07-04T06:49:12;1.80;;;0.80;;
5961;SDS011;3007;50.770;0.250;2022-07-04T06:51:39;0.98;;;0.70;;
5961;SDS011;3007;50.770;0.250;2022-07-04T06:54:06;0.65;;;0.65;;
5961;SDS011;3007;50.770;0.250;2022-07-04T06:56:33;1.33;;;0.70;;
5961;SDS011;3007;50.770;0.250;2022-07-04T06:59:00;1.00;;;0.63;;
5961;SDS011;3007;50.770;0.250;2022-07-04T07:01:30;0.75;;;0.70;;
5961;SDS011;3007;50.770;0.250;2022-07-04T07:03:57;1.25;;;0.60;;
5961;SDS011;3007;50.770;0.250;2022-07-04T07:06:25;0.93;;;0.80;;
5961;SDS011;3007;50.770;0.250;2022-07-04T07:08:53;3.17;;;0.75;;
5961;SDS011;3007;50.770;0.250;2022-07-04T07:11:20;1.13;;;0.70;;
5961;SDS011;3007;50.770;0.250;2022-07-04T07:13:48;1.10;;;0.63;;
5961;SDS011;3007;50.770;0.250;2022-07-04T07:16:16;1.48;;;0.60;;
5961;SDS011;3007;50.770;0.250;2022-07-04T07:18:43;0.73;;;0.70;;
5961;SDS011;3007;50.770;0.250;2022-07-04T07:21:11;2.20;;;0.80;;
5961;SDS011;3007;50.770;0.250;2022-07-04T07:23:40;0.63;;;0.52;;
5961;SDS011;3007;50.770;0.250;2022-07-04T07:26:07;1.40;;;0.70;;
5961;SDS011;3007;50.770;0.250;2022-07-04T07:28:34;1.13;;;0.65;;
5961;SDS011;3007;50.770;0.250;2022-07-04T07:31:02;0.82;;;0.45;;
5961;SDS011;3007;50.770;0.250;2022-07-04T07:33:29;0.95;;;0.57;;
5961;SDS011;3007;50.770;0.250;2022-07-04T07:35:56;2.30;;;0.80;;
5961;SDS011;3007;50.770;0.250;2022-07-04T07:38:24;1.52;;;0.60;;
5961;SDS011;3007;50.770;0.250;2022-07-04T07:40:52;0.70;;;0.70;;
5961;SDS011;3007;50.770;0.250;2022-07-04T07:43:20;0.40;;;0.40;;
5961;SDS011;3007;50.770;0.250;2022-07-04T07:45:47;0.80;;;0.50;;
5961;SDS011;3007;50.770;0.250;2022-07-04T07:48:14;0.60;;;0.55;;
5961;SDS011;3007;50.770;0.250;2022-07-04T07:50:42;0.75;;;0.60;;
5961;SDS011;3007;50.770;0.250;2022-07-04T07:53:09;0.90;;;0.57;;
5961;SDS011;3007;50.770;0.250;2022-07-04T07:55:36;1.10;;;0.68;;
5961;SDS011;3007;50.770;0.250;2022-07-04T07:58:05;1.85;;;0.73;;
5961;SDS011;3007;50.770;0.250;2022-07-04T08:00:32;1.10;;;0.65;;
5961;SDS011;3007;50.770;0.250;2022-07-04T08:02:59;0.40;;;0.40;;
5961;SDS011;3007;50.770;0.250;2022-07-04T08:05:43;1.02;;;0.50;;
5961;SDS011;3007;50.770;0.250;2022-07-04T08:08:11;2.25;;;0.65;;
5961;SDS011;3007;50.770;0.250;2022-07-04T08:10:38;1.15;;;0.70;;
5961;SDS011;3007;50.770;0.250;2022-07-04T08:13:07;1.13;;;0.70;;
5961;SDS011;3007;50.770;0.250;2022-07-04T08:15:35;1.15;;;0.70;;
5961;SDS011;3007;50.770;0.250;2022-07-04T08:18:02;1.95;;;0.60;;
5961;SDS011;3007;50.770;0.250;2022-07-04T08:20:30;2.67;;;0.80;;
5961;SDS011;3007;50.770;0.250;2022-07-04T08:22:57;0.65;;;0.57;;
5961;SDS011;3007;50.770;0.250;2022-07-04T08:25:24;0.60;;;0.50;;
5961;SDS011;3007;50.770;0.250;2022-07-04T08:27:52;1.13;;;0.80;;
5961;SDS011;3007;50.770;0.250;2022-07-04T08:30:20;1.25;;;0.68;;
5961;SDS011;3007;50.770;0.250;2022-07-04T08:32:47;0.82;;;0.77;;
5961;SDS011;3007;50.770;0.250;2022-07-04T08:35:14;0.30;;;0.30;;
5961;SDS011;3007;50.770;0.250;2022-07-04T08:37:42;1.00;;;0.57;;
5961;SDS011;3007;50.770;0.250;2022-07-04T08:40:09;0.50;;;0.50;;
5961;SDS011;3007;50.770;0.250;2022-07-04T08:42:38;2.88;;;1.13;;
5961;SDS011;3007;50.770;0.250;2022-07-04T08:45:07;0.60;;;0.60;;
5961;SDS011;3007;50.770;0.250;2022-07-04T08:47:36;1.15;;;0.63;;
5961;SDS011;3007;50.770;0.250;2022-07-04T08:50:07;0.82;;;0.70;;
5961;SDS011;3007;50.770;0.250;2022-07-04T08:52:35;0.77;;;0.70;;
5961;SDS011;3007;50.770;0.250;2022-07-04T08:55:03;1.65;;;0.70;;
5961;SDS011;3007;50.770;0.250;2022-07-04T08:57:49;0.80;;;0.40;;
5961;SDS011;3007;50.770;0.250;2022-07-04T09:00:35;0.98;;;0.65;;
5961;SDS011;3007;50.770;0.250;2022-07-04T09:03:04;0.57;;;0.57;;
5961;SDS011;3007;50.770;0.250;2022-07-04T09:05:32;1.50;;;0.50;;
5961;SDS011;3007;50.770;0.250;2022-07-04T09:07:59;0.88;;;0.65;;
5961;SDS011;3007;50.770;0.250;2022-07-04T09:10:27;1.02;;;0.60;;
5961;SDS011;3007;50.770;0.250;2022-07-04T09:12:55;1.42;;;0.80;;
5961;SDS011;3007;50.770;0.250;2022-07-04T09:15:22;1.30;;;0.60;;
5961;SDS011;3007;50.770;0.250;2022-07-04T09:17:49;2.80;;;0.52;;
5961;SDS011;3007;50.770;0.250;2022-07-04T09:20:18;0.98;;;0.70;;
5961;SDS011;3007;50.770;0.250;2022-07-04T09:22:46;0.47;;;0.47;;
5961;SDS011;3007;50.770;0.250;2022-07-04T09:25:15;0.50;;;0.40;;
5961;SDS011;3007;50.770;0.250;2022-07-04T09:27:43;0.65;;;0.60;;
5961;SDS011;3007;50.770;0.250;2022-07-04T09:30:10;0.60;;;0.60;;
5961;SDS011;3007;50.770;0.250;2022-07-04T09:32:39;2.67;;;0.68;;
5961;SDS011;3007;50.770;0.250;2022-07-04T09:35:07;1.05;;;0.60;;
5961;SDS011;3007;50.770;0.250;2022-07-04T09:37:37;0.55;;;0.40;;
5961;SDS011;3007;50.770;0.250;2022-07-04T09:40:06;1.13;;;0.60;;
5961;SDS011;3007;50.770;0.250;2022-07-04T09:42:34;1.02;;;0.43;;
5961;SDS011;3007;50.770;0.250;2022-07-04T09:45:04;0.93;;;0.75;;
5961;SDS011;3007;50.770;0.250;2022-07-04T09:47:31;0.57;;;0.50;;
5961;SDS011;3007;50.770;0.250;2022-07-04T09:49:59;0.50;;;0.47;;
5961;SDS011;3007;50.770;0.250;2022-07-04T09:52:26;0.63;;;0.47;;
5961;SDS011;3007;50.770;0.250;2022-07-04T09:54:57;1.38;;;0.43;;
5961;SDS011;3007;50.770;0.250;2022-07-04T09:57:25;0.77;;;0.57;;
5961;SDS011;3007;50.770;0.250;2022-07-04T09:59:53;0.43;;;0.40;;
5961;SDS011;3007;50.770;0.250;2022-07-04T10:02:20;3.22;;;0.50;;
5961;SDS011;3007;50.770;0.250;2022-07-04T10:04:47;0.80;;;0.45;;
5961;SDS011;3007;50.770;0.250;2022-07-04T10:07:29;1.38;;;0.60;;
5961;SDS011;3007;50.770;0.250;2022-07-04T10:09:58;0.50;;;0.50;;
5961;SDS011;3007;50.770;0.250;2022-07-04T10:12:25;0.65;;;0.40;;
5961;SDS011;3007;50.770;0.250;2022-07-04T10:14:53;0.88;;;0.50;;
5961;SDS011;3007;50.770;0.250;2022-07-04T10:17:21;1.45;;;0.82;;
5961;SDS011;3007;50.770;0.250;2022-07-04T10:19:48;1.17;;;0.40;;
5961;SDS011;3007;50.770;0.250;2022-07-04T10:22:17;0.88;;;0.50;;
5961;SDS011;3007;50.770;0.250;2022-07-04T10:24:46;0.50;;;0.40;;
5961;SDS011;3007;50.770;0.250;2022-07-04T10:27:14;1.58;;;0.70;;
5961;SDS011;3007;50.770;0.250;2022-07-04T10:29:42;0.50;;;0.50;;
5961;SDS011;3007;50.770;0.250;2022-07-04T10:32:09;0.50;;;0.50;;
5961;SDS011;3007;50.770;0.250;2022-07-04T10:34:41;2.58;;;0.65;;
5961;SDS011;3007;50.770;0.250;2022-07-04T10:37:08;0.22;;;0.22;;
5961;SDS011;3007;50.770;0.250;2022-07-04T10:39:35;0.60;;;0.50;;
5961;SDS011;3007;50.770;0.250;2022-07-04T10:42:03;0.93;;;0.57;;
5961;SDS011;3007;50.770;0.250;2022-07-04T10:44:32;0.43;;;0.40;;
5961;SDS011;3007;50.770;0.250;2022-07-04T10:47:02;1.42;;;0.70;;
5961;SDS011;3007;50.770;0.250;2022-07-04T10:49:30;1.52;;;0.60;;
5961;SDS011;3007;50.770;0.250;2022-07-04T10:52:09;0.98;;;0.60;;
5961;SDS011;3007;50.770;0.250;2022-07-04T10:54:37;0.32;;;0.32;;
5961;SDS011;3007;50.770;0.250;2022-07-04T10:57:12;0.40;;;0.40;;
5961;SDS011;3007;50.770;0.250;2022-07-04T10:59:41;2.70;;;0.60;;
5961;SDS011;3007;50.770;0.250;2022-07-04T11:02:22;0.52;;;0.52;;
5961;SDS011;3007;50.770;0.250;2022-07-04T11:10:20;0.65;;;0.43;;
5961;SDS011;3007;50.770;0.250;2022-07-04T11:13:01;1.75;;;0.50;;
5961;SDS011;3007;50.770;0.250;2022-07-04T11:18:18;0.63;;;0.47;;
5961;SDS011;3007;50.770;0.250;2022-07-04T11:20:47;0.80;;;0.63;;
5961;SDS011;3007;50.770;0.250;2022-07-04T11:23:17;1.23;;;0.57;;
5961;SDS011;3007;50.770;0.250;2022-07-04T11:25:46;0.60;;;0.60;;
5961;SDS011;3007;50.770;0.250;2022-07-04T11:28:18;0.60;;;0.60;;
5961;SDS011;3007;50.770;0.250;2022-07-04T11:30:48;1.00;;;0.90;;
5961;SDS011;3007;50.770;0.250;2022-07-04T11:33:16;1.13;;;0.50;;
5961;SDS011;3007;50.770;0.250;2022-07-04T11:38:47;0.68;;;0.63;;
5961;SDS011;3007;50.770;0.250;2022-07-04T11:41:16;2.70;;;0.90;;
5961;SDS011;3007;50.770;0.250;2022-07-04T11:44:05;1.40;;;1.02;;
5961;SDS011;3007;50.770;0.250;2022-07-04T11:46:49;2.55;;;0.73;;
5961;SDS011;3007;50.770;0.250;2022-07-04T11:49:18;0.95;;;0.60;;
5961;SDS011;3007;50.770;0.250;2022-07-04T11:51:46;1.23;;;0.70;;
5961;SDS011;3007;50.770;0.250;2022-07-04T11:54:14;1.63;;;0.80;;
5961;SDS011;3007;50.770;0.250;2022-07-04T11:56:43;2.50;;;0.75;;
5961;SDS011;3007;50.770;0.250;2022-07-04T11:59:11;3.10;;;0.95;;
5961;SDS011;3007;50.770;0.250;2022-07-04T12:01:39;1.92;;;0.85;;
5961;SDS011;3007;50.770;0.250;2022-07-04T12:04:13;1.63;;;1.00;;
5961;SDS011;3007;50.770;0.250;2022-07-04T12:06:42;1.30;;;0.80;;
5961;SDS011;3007;50.770;0.250;2022-07-04T12:09:10;0.70;;;0.63;;
5961;SDS011;3007;50.770;0.250;2022-07-04T12:11:49;2.80;;;0.90;;
5961;SDS011;3007;50.770;0.250;2022-07-04T12:14:17;3.03;;;1.13;;
5961;SDS011;3007;50.770;0.250;2022-07-04T12:16:44;1.30;;;0.98;;
5961;SDS011;3007;50.770;0.250;2022-07-04T12:19:12;2.00;;;0.70;;
5961;SDS011;3007;50.770;0.250;2022-07-04T12:21:41;3.30;;;0.77;;
5961;SDS011;3007;50.770;0.250;2022-07-04T12:24:10;2.22;;;0.90;;
5961;SDS011;3007;50.770;0.250;2022-07-04T12:26:45;2.42;;;0.98;;
5961;SDS011;3007;50.770;0.250;2022-07-04T12:29:19;2.15;;;0.70;;
5961;SDS011;3007;50.770;0.250;2022-07-04T12:31:50;2.65;;;0.90;;
5961;SDS011;3007;50.770;0.250;2022-07-04T12:34:18;1.95;;;0.75;;
5961;SDS011;3007;50.770;0.250;2022-07-04T12:36:48;1.77;;;1.02;;
5961;SDS011;3007;50.770;0.250;2022-07-04T12:39:27;1.25;;;0.90;;
5961;SDS011;3007;50.770;0.250;2022-07-04T12:42:07;1.13;;;0.90;;
5961;SDS011;3007;50.770;0.250;2022-07-04T12:44:35;1.40;;;0.73;;
5961;SDS011;3007;50.770;0.250;2022-07-04T12:47:02;1.55;;;0.98;;
5961;SDS011;3007;50.770;0.250;2022-07-04T12:49:30;1.63;;;0.88;;
5961;SDS011;3007;50.770;0.250;2022-07-04T12:52:04;4.07;;;0.88;;
5961;SDS011;3007;50.770;0.250;2022-07-04T12:54:32;1.27;;;0.80;;
5961;SDS011;3007;50.770;0.250;2022-07-04T12:57:04;2.15;;;0.70;;
5961;SDS011;3007;50.770;0.250;2022-07-04T12:59:31;2.88;;;0.70;;
5961;SDS011;3007;50.770;0.250;2022-07-04T13:01:58;1.05;;;0.70;;
5961;SDS011;3007;50.770;0.250;2022-07-04T13:04:25;1.55;;;0.70;;
5961;SDS011;3007;50.770;0.250;2022-07-04T13:06:53;4.00;;;0.90;;
5961;SDS011;3007;50.770;0.250;2022-07-04T13:09:20;3.75;;;0.80;;
5961;SDS011;3007;50.770;0.250;2022-07-04T13:11:49;1.70;;;0.85;;
5961;SDS011;3007;50.770;0.250;2022-07-04T13:14:34;3.78;;;0.68;;
5961;SDS011;3007;50.770;0.250;2022-07-04T13:17:01;3.60;;;0.80;;
5961;SDS011;3007;50.770;0.250;2022-07-04T13:19:28;2.03;;;0.80;;
5961;SDS011;3007;50.770;0.250;2022-07-04T13:21:55;2.15;;;0.70;;
5961;SDS011;3007;50.770;0.250;2022-07-04T13:24:22;3.90;;;0.70;;
5961;SDS011;3007;50.770;0.250;2022-07-04T13:26:51;2.10;;;0.70;;
5961;SDS011;3007;50.770;0.250;2022-07-04T13:29:18;3.38;;;0.73;;
5961;SDS011;3007;50.770;0.250;2022-07-04T13:31:45;2.42;;;0.90;;
5961;SDS011;3007;50.770;0.250;2022-07-04T13:34:12;6.05;;;0.98;;
5961;SDS011;3007;50.770;0.250;2022-07-04T13:36:39;0.98;;;0.60;;
5961;SDS011;3007;50.770;0.250;2022-07-04T13:39:06;3.95;;;0.80;;
5961;SDS011;3007;50.770;0.250;2022-07-04T13:41:33;1.67;;;0.88;;
5961;SDS011;3007;50.770;0.250;2022-07-04T13:44:03;3.97;;;0.90;;
5961;SDS011;3007;50.770;0.250;2022-07-04T13:46:30;1.33;;;0.52;;
5961;SDS011;3007;50.770;0.250;2022-07-04T13:49:00;4.63;;;0.95;;
5961;SDS011;3007;50.770;0.250;2022-07-04T13:51:27;5.07;;;0.95;;
5961;SDS011;3007;50.770;0.250;2022-07-04T13:53:54;1.60;;;0.73;;
5961;SDS011;3007;50.770;0.250;2022-07-04T13:56:21;1.10;;;0.68;;
5961;SDS011;3007;50.770;0.250;2022-07-04T13:58:49;1.80;;;0.70;;
5961;SDS011;3007;50.770;0.250;2022-07-04T14:01:17;7.90;;;1.02;;
5961;SDS011;3007;50.770;0.250;2022-07-04T14:03:45;1.80;;;0.73;;
5961;SDS011;3007;50.770;0.250;2022-07-04T14:06:12;2.50;;;0.80;;
5961;SDS011;3007;50.770;0.250;2022-07-04T14:08:40;2.60;;;0.98;;
5961;SDS011;3007;50.770;0.250;2022-07-04T14:11:07;1.65;;;0.65;;
5961;SDS011;3007;50.770;0.250;2022-07-04T14:13:35;2.22;;;0.90;;
5961;SDS011;3007;50.770;0.250;2022-07-04T14:16:03;2.65;;;0.88;;
5961;SDS011;3007;50.770;0.250;2022-07-04T14:18:32;3.13;;;0.95;;
5961;SDS011;3007;50.770;0.250;2022-07-04T14:21:00;1.75;;;0.90;;
5961;SDS011;3007;50.770;0.250;2022-07-04T14:23:27;4.95;;;1.27;;
5961;SDS011;3007;50.770;0.250;2022-07-04T14:26:06;2.15;;;0.73;;
5961;SDS011;3007;50.770;0.250;2022-07-04T14:28:34;7.35;;;1.20;;
5961;SDS011;3007;50.770;0.250;2022-07-04T14:31:01;6.20;;;1.20;;
5961;SDS011;3007;50.770;0.250;2022-07-04T14:33:28;4.35;;;1.10;;
5961;SDS011;3007;50.770;0.250;2022-07-04T14:35:57;5.05;;;0.70;;
5961;SDS011;3007;50.770;0.250;2022-07-04T14:38:25;1.67;;;0.80;;
5961;SDS011;3007;50.770;0.250;2022-07-04T14:40:52;2.65;;;0.80;;
5961;SDS011;3007;50.770;0.250;2022-07-04T14:43:19;2.88;;;0.80;;
5961;SDS011;3007;50.770;0.250;2022-07-04T14:45:46;2.22;;;0.90;;
5961;SDS011;3007;50.770;0.250;2022-07-04T14:48:14;3.13;;;0.88;;
5961;SDS011;3007;50.770;0.250;2022-07-04T14:50:41;3.25;;;1.13;;
5961;SDS011;3007;50.770;0.250;2022-07-04T14:53:10;3.78;;;1.17;;
5961;SDS011;3007;50.770;0.250;2022-07-04T14:55:37;1.58;;;0.70;;
5961;SDS011;3007;50.770;0.250;2022-07-04T14:58:04;2.38;;;0.88;;
5961;SDS011;3007;50.770;0.250;2022-07-04T15:00:31;9.07;;;1.02;;
5961;SDS011;3007;50.770;0.250;2022-07-04T15:02:59;2.28;;;0.85;;
5961;SDS011;3007;50.770;0.250;2022-07-04T15:05:26;2.25;;;1.08;;
5961;SDS011;3007;50.770;0.250;2022-07-04T15:07:53;4.20;;;1.00;;
5961;SDS011;3007;50.770;0.250;2022-07-04T15:10:23;1.52;;;0.70;;
5961;SDS011;3007;50.770;0.250;2022-07-04T15:12:50;4.55;;;1.38;;
5961;SDS011;3007;50.770;0.250;2022-07-04T15:15:17;3.00;;;1.02;;
5961;SDS011;3007;50.770;0.250;2022-07-04T15:17:45;4.32;;;1.10;;
5961;SDS011;3007;50.770;0.250;2022-07-04T15:20:12;4.50;;;1.10;;
5961;SDS011;3007;50.770;0.250;2022-07-04T15:22:57;4.13;;;0.98;;
5961;SDS011;3007;50.770;0.250;2022-07-04T15:25:43;3.38;;;0.80;;
5961;SDS011;3007;50.770;0.250;2022-07-04T15:28:10;4.97;;;0.90;;
5961;SDS011;3007;50.770;0.250;2022-07-04T15:30:39;2.05;;;1.05;;
5961;SDS011;3007;50.770;0.250;2022-07-04T15:33:06;4.13;;;0.80;;
5961;SDS011;3007;50.770;0.250;2022-07-04T15:35:39;5.47;;;1.20;;